Time;durP1;ratioP1;P1;durP2;ratioP2;P2;SDS_P1;SDS_P2;PMS_P1;PMS_P2;Temp;Humidity;BMP_temperature;BMP_pressure;BME280_temperature;BME280_humidity;BME280_pressure;Samples;Min_cycle;Max_cycle;Signal;HPM_P1;HPM_P2
2022/07/12 00:00:27;;;;;;;;;6.25;6.25;;;;;23.78;49.87;99448.19;4824082;29;45526;-78
2022/07/12 00:02:53;;;;;;;;;7.00;7.00;;;;;23.77;50.07;99445.63;4824276;29;45435;-78
2022/07/12 00:05:18;;;;;;;;;8.25;7.00;;;;;23.78;50.23;99452.72;4824262;29;45390;-79
2022/07/12 00:07:44;;;;;;;;;8.25;8.25;;;;;23.78;50.06;99452.72;4824120;29;46432;-78
2022/07/12 00:10:09;;;;;;;;;5.00;5.00;;;;;23.77;50.01;99451.03;4824119;29;45416;-78
2022/07/12 00:12:35;;;;;;;;;7.25;5.00;;;;;23.76;50.41;99447.47;4824043;29;45343;-78
2022/07/12 00:15:00;;;;;;;;;6.00;6.00;;;;;23.76;49.85;99444.78;4824131;29;45262;-78
2022/07/12 00:17:25;;;;;;;;;5.00;5.00;;;;;23.76;50.12;99441.25;4827093;29;48166;-76
2022/07/12 00:19:51;;;;;;;;;8.00;7.00;;;;;23.76;50.05;99436.72;4823056;29;45349;-78
2022/07/12 00:22:16;;;;;;;;;5.25;5.25;;;;;23.77;50.29;99438.41;4823798;29;45896;-78
2022/07/12 00:24:42;;;;;;;;;7.25;6.50;;;;;23.79;50.05;99446.34;4824060;29;45523;-78
2022/07/12 00:27:07;;;;;;;;;5.25;5.25;;;;;23.78;50.18;99444.66;4823752;29;46320;-78
2022/07/12 00:29:33;;;;;;;;;7.50;7.50;;;;;23.77;50.21;99451.03;4823723;29;45372;-78
2022/07/12 00:31:58;;;;;;;;;6.25;6.25;;;;;23.74;50.33;99453.97;4823833;29;45377;-78
2022/07/12 00:34:23;;;;;;;;;7.00;7.00;;;;;23.68;51.24;99452.69;4823405;29;45360;-78
2022/07/12 00:36:49;;;;;;;;;6.50;6.50;;;;;23.62;51.34;99454.09;4822438;29;47144;-78
2022/07/12 00:39:14;;;;;;;;;5.75;5.00;;;;;23.58;51.35;99452.66;4823555;29;45408;-78
2022/07/12 00:41:39;;;;;;;;;5.50;5.50;;;;;23.57;51.48;99456.34;4824062;29;45881;-78
2022/07/12 00:44:05;;;;;;;;;9.25;8.00;;;;;23.57;51.33;99458.16;4823674;29;45542;-78
2022/07/12 00:46:31;;;;;;;;;9.25;8.00;;;;;23.56;51.49;99451.94;4823789;29;46491;-78
2022/07/12 00:48:57;;;;;;;;;5.60;5.00;;;;;23.56;50.97;99460.00;4823288;29;45256;-78
2022/07/12 00:51:22;;;;;;;;;6.00;6.00;;;;;23.56;51.43;99460.00;4823707;29;45524;-78
2022/07/12 00:53:50;;;;;;;;;6.25;6.25;;;;;23.58;51.10;99451.81;4822237;29;46008;-78
2022/07/12 00:56:16;;;;;;;;;8.00;6.25;;;;;23.60;51.58;99460.59;4823629;29;45417;-78
2022/07/12 00:58:43;;;;;;;;;6.25;6.00;;;;;23.60;50.70;99461.44;4823680;29;45333;-78
2022/07/12 01:01:09;;;;;;;;;7.25;7.25;;;;;23.61;51.31;99456.91;4823966;29;45458;-78
2022/07/12 01:03:34;;;;;;;;;7.75;7.75;;;;;23.61;51.65;99465.00;4823155;29;45571;-78
2022/07/12 01:06:00;;;;;;;;;4.50;3.75;;;;;23.60;51.36;99460.59;4823840;29;45925;-78
2022/07/12 01:08:27;;;;;;;;;7.00;7.00;;;;;23.58;51.83;99459.88;4823572;29;45503;-78
2022/07/12 01:10:52;;;;;;;;;7.00;6.25;;;;;23.56;51.74;99461.84;4823802;29;45376;-78
2022/07/12 01:13:18;;;;;;;;;6.50;6.50;;;;;23.56;51.63;99467.22;4823327;29;45415;-78
2022/07/12 01:15:44;;;;;;;;;6.00;6.00;;;;;23.52;51.97;99461.25;4823707;29;45429;-78
2022/07/12 01:18:11;;;;;;;;;7.20;6.20;;;;;23.50;51.69;99457.81;4823018;29;45406;-78
2022/07/12 01:20:36;;;;;;;;;7.50;7.50;;;;;23.48;51.83;99458.94;4823608;29;45384;-78
2022/07/12 01:23:02;;;;;;;;;6.75;6.75;;;;;23.47;51.75;99466.16;4821819;29;45572;-78
2022/07/12 01:25:28;;;;;;;;;6.25;6.25;;;;;23.47;51.78;99462.59;4823180;29;45444;-78
2022/07/12 01:27:53;;;;;;;;;10.00;9.25;;;;;23.44;51.83;99463.75;4823182;29;45391;-78
2022/07/12 01:30:19;;;;;;;;;6.75;6.75;;;;;23.44;51.98;99468.28;4823176;29;45894;-78
2022/07/12 01:32:45;;;;;;;;;8.00;6.75;;;;;23.43;51.75;99466.56;4825841;29;45430;-78
2022/07/12 01:35:11;;;;;;;;;9.00;6.50;;;;;23.41;52.39;99472.09;4826203;29;45409;-78
2022/07/12 01:37:38;;;;;;;;;8.25;8.25;;;;;23.38;52.43;99471.50;4826177;29;45430;-77
2022/07/12 01:40:06;;;;;;;;;6.75;6.75;;;;;23.35;52.10;99472.63;4826421;29;45424;-78
2022/07/12 01:42:32;;;;;;;;;9.50;8.75;;;;;23.34;52.13;99476.28;4826226;29;45523;-78
2022/07/12 01:44:58;;;;;;;;;8.25;8.25;;;;;23.33;52.23;99474.59;4826079;29;46288;-78
2022/07/12 01:47:26;;;;;;;;;7.50;7.50;;;;;23.33;52.31;99480.81;4826122;29;45416;-78
2022/07/12 01:49:52;;;;;;;;;6.75;6.75;;;;;23.32;52.83;99483.63;4826090;29;45345;-78
2022/07/12 01:52:18;;;;;;;;;8.25;7.00;;;;;23.30;52.47;99478.38;4826095;29;45610;-78
2022/07/12 01:54:44;;;;;;;;;7.00;7.00;;;;;23.29;52.90;99486.63;4826140;29;46583;-78
2022/07/12 01:57:10;;;;;;;;;9.25;8.25;;;;;23.25;53.04;99491.41;4826175;29;45608;-78
2022/07/12 01:59:36;;;;;;;;;8.00;7.50;;;;;23.23;52.75;99489.84;4826289;29;45410;-79
2022/07/12 02:02:03;;;;;;;;;7.75;7.00;;;;;23.17;52.94;99496.59;4825768;29;45545;-78
2022/07/12 02:04:29;;;;;;;;;8.75;8.75;;;;;23.14;53.18;99499.53;4824430;29;48616;-78
2022/07/12 02:06:55;;;;;;;;;6.25;6.25;;;;;23.13;53.39;99499.66;4825837;29;45407;-78
2022/07/12 02:09:20;;;;;;;;;7.00;6.25;;;;;23.11;52.68;99501.66;4826415;29;45233;-78
2022/07/12 02:11:49;;;;;;;;;5.25;5.25;;;;;23.11;52.38;99493.59;4825980;29;45579;-76
2022/07/12 02:14:16;;;;;;;;;5.00;5.00;;;;;23.11;52.49;99499.81;4825913;29;45383;-78
2022/07/12 02:16:42;;;;;;;;;7.60;7.60;;;;;23.11;52.14;99498.97;4825766;29;45380;-78
2022/07/12 02:19:07;;;;;;;;;6.50;6.50;;;;;;;;4830849;29;45405;-78
2022/07/12 02:21:33;;;;;;;;;7.00;7.00;;;;;23.08;52.41;99505.47;4825796;29;45326;-78
2022/07/12 02:23:59;;;;;;;;;7.00;7.00;;;;;23.06;51.97;99502.03;4825685;29;46366;-78
2022/07/12 02:26:25;;;;;;;;;7.00;7.00;;;;;23.05;51.74;99507.53;4825672;29;45354;-78
2022/07/12 02:28:50;;;;;;;;;7.00;7.00;;;;;23.05;52.20;99512.94;4821535;29;45348;-78
2022/07/12 02:31:16;;;;;;;;;5.25;5.25;;;;;23.02;51.80;99505.97;4825823;29;45536;-79
2022/07/12 02:33:41;;;;;;;;;9.25;8.50;;;;;23.02;51.93;99510.50;4825280;29;46636;-78
2022/07/12 02:36:07;;;;;;;;;6.00;6.00;;;;;22.99;51.50;99500.84;4825508;29;45385;-76
2022/07/12 02:38:32;;;;;;;;;5.25;5.25;;;;;22.97;51.27;99502.81;4825349;29;45417;-78
2022/07/12 02:40:58;;;;;;;;;6.25;6.00;;;;;22.95;52.05;99504.81;4825417;29;45500;-78
2022/07/12 02:43:25;;;;;;;;;7.25;6.50;;;;;22.93;51.81;99502.25;4825090;29;46266;-78
2022/07/12 02:45:57;;;;;;;;;6.00;6.00;;;;;22.92;52.11;99507.75;4825048;29;45411;-78
2022/07/12 02:48:23;;;;;;;;;5.00;5.00;;;;;22.89;51.31;99506.16;4824979;29;45534;-78
2022/07/12 02:50:48;;;;;;;;;6.00;6.00;;;;;22.88;51.77;99507.16;4825219;29;45486;-78
2022/07/12 02:53:15;;;;;;;;;5.00;5.00;;;;;22.86;51.39;99514.50;4825152;29;45493;-78
2022/07/12 02:55:40;;;;;;;;;7.00;7.00;;;;;22.85;51.42;99510.09;4825139;29;45409;-78
2022/07/12 02:58:07;;;;;;;;;4.50;4.50;;;;;22.82;51.57;99510.34;4825222;29;45387;-78
2022/07/12 03:00:32;;;;;;;;;6.00;6.00;;;;;22.80;51.23;99515.00;4825014;29;45285;-78
2022/07/12 03:02:58;;;;;;;;;7.25;7.00;;;;;22.79;51.18;99515.16;4824825;29;46386;-78
2022/07/12 03:05:24;;;;;;;;;4.00;4.00;;;;;22.77;51.14;99509.91;4825105;29;45373;-78
2022/07/12 03:07:49;;;;;;;;;8.75;6.25;;;;;22.76;50.44;99513.53;4825178;29;45450;-78
2022/07/12 03:10:15;;;;;;;;;6.25;6.25;;;;;22.75;50.83;99509.13;4825244;29;45368;-78
2022/07/12 03:12:40;;;;;;;;;7.50;7.50;;;;;22.73;51.34;99511.09;4824843;29;45600;-78
2022/07/12 03:15:07;;;;;;;;;6.50;6.00;;;;;22.73;51.00;99512.94;4825072;29;45416;-78
2022/07/12 03:17:33;;;;;;;;;3.50;3.00;;;;;22.71;51.08;99523.81;4824973;29;45428;-78
2022/07/12 03:19:58;;;;;;;;;8.00;7.25;;;;;22.68;51.58;99521.38;4824600;29;45471;-78
2022/07/12 03:22:24;;;;;;;;;7.00;6.75;;;;;22.68;51.62;99520.53;4824785;29;45506;-79
2022/07/12 03:24:50;;;;;;;;;7.50;7.50;;;;;22.63;51.79;99520.91;4825012;29;45293;-78
2022/07/12 03:27:15;;;;;;;;;8.50;8.00;;;;;22.59;52.09;99523.00;4824855;29;45545;-76
2022/07/12 03:29:41;;;;;;;;;10.75;9.00;;;;;22.58;52.42;99525.81;4823255;29;45384;-79
2022/07/12 03:32:07;;;;;;;;;8.50;8.50;;;;;22.57;52.84;99524.97;4824386;29;45395;-78
2022/07/12 03:34:32;;;;;;;;;6.75;6.75;;;;;22.55;53.16;99524.25;4824332;29;45475;-78
2022/07/12 03:36:58;;;;;;;;;8.50;8.50;;;;;22.52;53.19;99521.81;4824790;29;45487;-78
2022/07/12 03:39:24;;;;;;;;;10.00;9.50;;;;;22.51;53.52;99540.72;4824635;29;45337;-78
2022/07/12 03:41:49;;;;;;;;;8.75;8.25;;;;;22.48;53.37;99541.84;4824515;29;45976;-78
2022/07/12 03:44:15;;;;;;;;;9.00;9.00;;;;;22.46;53.61;99534.88;4824558;29;45345;-78
2022/07/12 03:46:41;;;;;;;;;8.50;8.25;;;;;22.43;53.93;99538.69;4824824;29;45358;-78
2022/07/12 03:49:06;;;;;;;;;8.50;7.25;;;;;22.40;53.60;99541.63;4824050;29;45596;-78
2022/07/12 03:51:31;;;;;;;;;7.50;5.00;;;;;22.39;53.29;99552.50;4824456;29;46302;-78
2022/07/12 03:53:57;;;;;;;;;9.75;8.00;;;;;22.38;53.79;99551.66;4823772;29;45407;-78
2022/07/12 03:59:06;;;;;;;;;9.75;9.25;;;;;22.35;53.95;99551.88;4824367;29;45483;-78
2022/07/12 04:01:32;;;;;;;;;8.75;8.50;;;;;22.34;54.33;99549.31;4824035;29;45447;-78
2022/07/12 04:03:58;;;;;;;;;9.50;9.50;;;;;22.33;54.12;99555.69;4822832;29;45402;-78
2022/07/12 04:06:24;;;;;;;;;11.00;9.00;;;;;22.29;53.87;99563.13;4824295;29;45442;-78
2022/07/12 04:08:49;;;;;;;;;9.00;9.00;;;;;22.28;54.50;99561.44;4823878;29;45420;-78
2022/07/12 04:11:15;;;;;;;;;9.50;9.50;;;;;22.25;54.25;99567.91;4824290;29;45374;-78
2022/07/12 04:13:40;;;;;;;;;9.25;8.75;;;;;22.23;54.31;99572.56;4823920;29;45420;-78
2022/07/12 04:16:06;;;;;;;;;8.75;8.75;;;;;22.20;53.90;99569.25;4824428;29;45760;-78
2022/07/12 04:18:32;;;;;;;;;9.00;7.25;;;;;22.19;53.49;99579.16;4823862;29;45503;-78
2022/07/12 04:20:58;;;;;;;;;7.00;7.00;;;;;22.15;53.52;99577.69;4820127;29;45374;-79
2022/07/12 04:23:24;;;;;;;;;8.75;7.25;;;;;22.12;53.54;99594.03;4823912;29;45350;-78
2022/07/12 04:25:49;;;;;;;;;9.00;8.00;;;;;22.10;54.01;99585.28;4824103;29;45213;-78
2022/07/12 04:28:14;;;;;;;;;8.00;6.25;;;;;22.08;54.14;99589.91;4823967;29;45476;-78
2022/07/12 04:30:42;;;;;;;;;9.00;7.25;;;;;22.08;53.88;99584.53;4823728;29;45477;-78
2022/07/12 04:33:08;;;;;;;;;6.20;6.20;;;;;22.07;54.12;99587.34;4823692;29;45478;-78
2022/07/12 04:35:34;;;;;;;;;6.00;6.00;;;;;22.10;54.07;99589.78;4823835;29;45378;-78
2022/07/12 04:37:59;;;;;;;;;7.50;7.50;;;;;22.14;54.64;99584.03;4822826;29;45429;-78
2022/07/12 04:40:24;;;;;;;;;9.25;6.50;;;;;22.18;54.24;99590.88;4823588;29;45443;-78
2022/07/12 04:42:50;;;;;;;;;8.25;8.25;;;;;22.20;54.08;99588.06;4823828;29;45571;-78
2022/07/12 04:45:15;;;;;;;;;8.00;8.00;;;;;22.21;53.68;99587.09;4823595;29;45362;-78
2022/07/12 04:47:40;;;;;;;;;6.75;6.75;;;;;22.20;53.90;99596.97;4823580;29;45533;-78
2022/07/12 04:50:07;;;;;;;;;10.25;8.00;;;;;22.19;53.76;99587.19;4823349;29;45544;-78
2022/07/12 04:52:33;;;;;;;;;7.40;7.40;;;;;22.21;53.54;99600.50;4823362;29;45379;-78
2022/07/12 04:54:59;;;;;;;;;7.25;7.25;;;;;22.21;53.70;99593.31;4823667;29;45324;-78
2022/07/12 04:57:24;;;;;;;;;8.75;7.00;;;;;22.22;54.08;99599.53;4823023;29;45366;-77
2022/07/12 04:59:50;;;;;;;;;7.50;7.50;;;;;22.23;54.21;99587.81;4823376;29;46273;-77
2022/07/12 05:02:15;;;;;;;;;8.75;7.50;;;;;22.24;54.30;99602.97;4823427;29;45314;-78
2022/07/12 05:04:40;;;;;;;;;9.50;7.75;;;;;22.22;54.04;99605.75;4822304;29;45472;-78
2022/07/12 05:07:06;;;;;;;;;4.00;3.50;;;;;22.20;53.93;99607.72;4826136;29;45366;-78
2022/07/12 05:09:31;;;;;;;;;7.75;7.75;;;;;22.19;53.65;99613.22;4826162;29;46335;-77
2022/07/12 05:11:56;;;;;;;;;10.00;7.00;;;;;22.20;54.29;99613.09;4825023;29;45385;-77
2022/07/12 05:14:22;;;;;;;;;7.50;7.50;;;;;22.23;53.80;99610.16;4826322;29;45547;-78
2022/07/12 05:16:47;;;;;;;;;7.25;7.25;;;;;22.24;53.44;99609.19;4826150;29;45388;-77
2022/07/12 05:19:13;;;;;;;;;6.00;4.25;;;;;22.26;53.83;99609.06;4825793;29;46678;-77
2022/07/12 05:21:40;;;;;;;;;11.25;11.25;;;;;22.26;53.39;99614.44;4826245;29;45529;-77
2022/07/12 05:24:06;;;;;;;;;7.25;6.75;;;;;22.27;52.84;99617.00;4855278;29;45447;-77
2022/07/12 05:26:31;;;;;;;;;5.50;4.75;;;;;22.29;53.22;99615.03;4826306;29;45490;-77
2022/07/12 05:28:57;;;;;;;;;12.25;10.00;;;;;22.32;52.83;99627.34;4825521;29;46601;-77
2022/07/12 05:31:23;;;;;;;;;8.00;8.00;;;;;22.36;53.29;99622.59;4826652;29;45295;-78
2022/07/12 05:33:49;;;;;;;;;8.25;7.25;;;;;22.39;53.12;99616.97;4825614;29;45428;-77
2022/07/12 05:36:14;;;;;;;;;10.00;9.00;;;;;22.42;52.91;99619.44;4825910;29;45472;-77
2022/07/12 05:38:39;;;;;;;;;5.50;5.25;;;;;22.42;52.83;99620.28;4825673;29;45442;-78
2022/07/12 05:41:05;;;;;;;;;7.75;7.75;;;;;22.47;52.70;99623.44;4825619;29;45403;-78
2022/07/12 05:43:30;;;;;;;;;8.00;6.75;;;;;22.50;52.65;99623.19;4825510;29;45638;-77
2022/07/12 05:45:56;;;;;;;;;1.50;1.50;;;;;22.53;53.20;99627.47;4826072;29;45345;-77
2022/07/12 05:48:21;;;;;;;;;7.50;7.50;;;;;22.57;52.79;99623.56;4824993;29;45590;-77
2022/07/12 05:50:46;;;;;;;;;6.25;6.00;;;;;22.60;52.73;99621.47;4825347;29;45659;-77
2022/07/12 05:53:24;;;;;;;;;7.00;6.25;;;;;22.61;52.39;99616.94;4825594;29;45508;-77
2022/07/12 05:55:51;;;;;;;;;9.25;7.00;;;;;22.64;52.69;99619.38;4825339;29;45458;-77
2022/07/12 05:58:17;;;;;;;;;6.00;6.00;;;;;22.67;52.15;99619.13;4824471;29;45524;-53
2022/07/12 06:00:44;;;;;;;;;9.80;7.00;;;;;22.75;51.96;99618.50;4825407;29;45383;-53
2022/07/12 06:03:09;;;;;;;;;10.00;8.25;;;;;22.79;52.71;99620.00;4825216;29;45497;-52
2022/07/12 06:05:35;;;;;;;;;7.00;7.00;;;;;22.75;52.53;99618.50;4825296;29;45298;-54
2022/07/12 06:08:00;;;;;;;;;9.25;8.00;;;;;22.71;52.43;99620.59;4824972;29;45583;-51
2022/07/12 06:10:26;;;;;;;;;7.75;6.75;;;;;22.72;52.58;99622.28;4825416;29;45320;-55
2022/07/12 06:12:51;;;;;;;;;8.50;8.50;;;;;22.73;53.32;99628.53;4824998;29;45709;-53
2022/07/12 06:15:17;;;;;;;;;12.00;11.25;;;;;22.74;53.05;99627.53;4825382;29;45633;-53
2022/07/12 06:17:42;;;;;;;;;8.00;8.00;;;;;22.73;53.09;99632.06;4829111;29;45485;-55
2022/07/12 06:20:08;;;;;;;;;9.00;7.50;;;;;22.74;52.71;99631.09;4825462;29;45427;-56
2022/07/12 06:22:34;;;;;;;;;10.00;10.00;;;;;22.76;53.21;99636.34;4825029;29;45319;-54
2022/07/12 06:24:59;;;;;;;;;9.25;7.50;;;;;22.79;53.04;99636.94;4824257;29;45492;-54
2022/07/12 06:27:25;;;;;;;;;10.50;10.00;;;;;22.82;52.68;99633.16;4824724;29;45913;-54
2022/07/12 06:29:51;;;;;;;;;8.00;8.00;;;;;22.85;52.99;99628.41;4820972;29;45435;-55
2022/07/12 06:32:17;;;;;;;;;11.00;10.00;;;;;22.87;52.73;99626.44;4820973;29;45459;-54
2022/07/12 06:34:43;;;;;;;;;8.25;8.00;;;;;22.92;53.01;99626.91;4824880;29;45481;-55
2022/07/12 06:37:08;;;;;;;;;7.75;5.75;;;;;22.97;52.66;99632.75;4824504;29;45458;-55
2022/07/12 06:39:37;;;;;;;;;7.50;7.25;;;;;23.00;52.03;99637.03;4823347;29;45401;-56
2022/07/12 06:42:03;;;;;;;;;8.00;7.00;;;;;23.04;52.31;99638.47;4824558;29;45423;-55
2022/07/12 06:44:32;;;;;;;;;8.75;8.75;;;;;23.07;51.85;99635.53;4823199;29;45521;-55
2022/07/12 06:46:59;;;;;;;;;6.00;6.00;;;;;23.12;51.14;99629.78;4823080;29;46690;-56
2022/07/12 06:49:25;;;;;;;;;6.80;6.20;;;;;23.14;50.77;99631.34;4823727;29;45422;-55
2022/07/12 06:51:52;;;;;;;;;6.75;6.50;;;;;23.18;50.72;99631.94;4823869;29;45439;-56
2022/07/12 06:54:17;;;;;;;;;7.50;6.00;;;;;23.21;50.26;99635.22;4824589;29;45446;-55
2022/07/12 06:56:43;;;;;;;;;10.75;10.75;;;;;23.26;50.85;99626.78;4824019;29;45698;-55
2022/07/12 06:59:11;;;;;;;;;7.00;7.00;;;;;23.32;50.75;99628.94;4823445;29;45462;-56
2022/07/12 07:01:37;;;;;;;;;6.00;6.00;;;;;23.37;50.20;99626.72;4822846;29;45417;-56
2022/07/12 07:04:03;;;;;;;;;6.50;6.00;;;;;23.41;49.69;99624.63;4821191;29;45475;-54
2022/07/12 07:06:29;;;;;;;;;6.50;5.50;;;;;23.46;50.22;99623.22;4824188;29;45650;-54
2022/07/12 07:08:54;;;;;;;;;7.25;6.00;;;;;23.52;49.40;99622.75;4824522;29;45436;-55
2022/07/12 07:11:19;;;;;;;;;7.25;7.25;;;;;23.59;49.82;99620.41;4824591;29;45326;-56
2022/07/12 07:13:45;;;;;;;;;5.50;5.50;;;;;23.64;49.47;99624.38;4823879;29;45594;-55
2022/07/12 07:16:11;;;;;;;;;6.00;4.50;;;;;23.68;49.24;99627.66;4823632;29;46981;-55
2022/07/12 07:18:36;;;;;;;;;6.75;5.25;;;;;23.73;48.71;99624.59;4827076;29;45314;-64
2022/07/12 07:21:02;;;;;;;;;6.00;6.00;;;;;23.77;48.34;99620.66;4838206;29;45504;-64
2022/07/12 07:23:27;;;;;;;;;6.50;5.75;;;;;23.81;48.69;99622.94;4824237;29;45472;-63
2022/07/12 07:25:52;;;;;;;;;6.50;6.50;;;;;23.85;48.21;99619.00;4823843;29;46474;-64
2022/07/12 07:28:18;;;;;;;;;7.75;7.00;;;;;23.90;48.07;99619.44;4823833;29;45440;-64
2022/07/12 07:30:52;;;;;;;;;5.75;5.75;;;;;23.96;48.20;99624.28;4823391;29;45434;-64
2022/07/12 07:33:18;;;;;;;;;7.00;7.00;;;;;24.02;47.68;99620.22;4823697;29;45455;-64
2022/07/12 07:35:43;;;;;;;;;7.25;5.75;;;;;24.06;48.32;99615.41;4823938;29;46397;-64
2022/07/12 07:38:10;;;;;;;;;6.00;6.00;;;;;24.14;48.04;99620.97;4823990;29;45489;-64
2022/07/12 07:40:36;;;;;;;;;6.00;6.00;;;;;24.21;48.04;99624.84;4823881;29;45338;-64
2022/07/12 07:43:01;;;;;;;;;7.75;6.75;;;;;24.28;47.87;99618.81;4823466;29;45337;-64
2022/07/12 07:45:26;;;;;;;;;7.25;7.25;;;;;24.34;47.79;99622.78;4823559;29;45673;-63
2022/07/12 07:47:52;;;;;;;;;6.75;5.50;;;;;24.40;47.46;99621.38;4823383;29;45591;-64
2022/07/12 07:50:19;;;;;;;;;6.00;6.00;;;;;24.46;47.49;99621.72;4823946;29;45355;-64
2022/07/12 07:52:45;;;;;;;;;5.25;5.00;;;;;24.54;47.51;99611.06;4823968;29;45346;-64
2022/07/12 07:55:11;;;;;;;;;11.50;10.75;;;;;24.59;47.65;99608.81;4823093;29;45439;-64
2022/07/12 07:57:36;;;;;;;;;8.00;8.00;;;;;24.66;47.51;99609.09;4823802;29;45312;-64
2022/07/12 08:00:03;;;;;;;;;6.00;6.00;;;;;24.72;47.22;99605.88;4823575;29;45485;-64
2022/07/12 08:02:28;;;;;;;;;8.00;6.00;;;;;24.79;46.87;99598.06;4823434;29;45385;-64
2022/07/12 08:04:54;;;;;;;;;8.25;6.00;;;;;24.84;46.97;99606.56;4823176;29;46404;-64
2022/07/12 08:07:19;;;;;;;;;6.00;6.00;;;;;24.89;47.00;99605.19;4823545;29;45450;-64
2022/07/12 08:09:45;;;;;;;;;7.25;7.00;;;;;24.95;46.90;99607.34;4823748;29;45482;-64
2022/07/12 08:12:10;;;;;;;;;5.00;5.00;;;;;25.00;46.91;99605.06;4823698;29;45532;-64
2022/07/12 08:14:35;;;;;;;;;6.00;5.00;;;;;25.07;46.52;99605.38;4823268;29;45479;-64
2022/07/12 08:17:01;;;;;;;;;5.75;5.00;;;;;25.13;46.34;99601.25;4825535;29;45424;-64
2022/07/12 08:19:27;;;;;;;;;5.50;5.50;;;;;25.20;46.45;99588.88;4826250;29;45400;-64
2022/07/12 08:21:52;;;;;;;;;5.25;5.00;;;;;25.25;46.17;99592.88;4823250;29;45524;-64
2022/07/12 08:24:17;;;;;;;;;5.50;5.50;;;;;25.34;45.74;99597.38;4822886;29;45347;-55
2022/07/12 08:26:43;;;;;;;;;7.00;5.50;;;;;25.39;45.58;99600.53;4823400;29;45262;-63
2022/07/12 08:29:08;;;;;;;;;5.50;5.50;;;;;25.47;45.82;99605.19;4823041;29;45768;-63
2022/07/12 08:31:34;;;;;;;;;5.00;5.00;;;;;25.54;45.40;99608.16;4823040;29;45429;-64
2022/07/12 08:33:59;;;;;;;;;8.75;7.00;;;;;25.61;45.29;99607.47;4822396;29;45481;-64
2022/07/12 08:36:25;;;;;;;;;5.00;5.00;;;;;25.69;44.92;99614.84;4823497;29;45172;-64
2022/07/12 08:38:50;;;;;;;;;8.00;7.00;;;;;25.76;44.79;99609.72;4823379;29;45319;-64
2022/07/12 08:41:15;;;;;;;;;4.25;4.25;;;;;25.84;44.86;99609.84;4827456;29;45404;-64
2022/07/12 08:43:41;;;;;;;;;6.25;6.25;;;;;25.89;44.55;99607.56;4829401;29;45971;-65
2022/07/12 08:46:12;;;;;;;;;5.50;5.50;;;;;25.93;44.61;99609.81;4829435;29;45387;-56
2022/07/12 08:48:39;;;;;;;;;5.00;4.00;;;;;25.96;44.66;99604.13;4828425;29;45557;-55
2022/07/12 08:51:09;;;;;;;;;4.00;4.00;;;;;26.03;44.78;99609.78;4829199;29;45601;-56
2022/07/12 08:53:35;;;;;;;;;6.25;5.50;;;;;26.08;44.41;99600.22;4828936;29;45655;-56
2022/07/12 08:56:02;;;;;;;;;6.40;6.40;;;;;26.14;44.10;99603.34;4829393;29;45443;-56
2022/07/12 08:58:28;;;;;;;;;6.00;6.00;;;;;26.17;44.25;99597.63;4829085;29;45503;-54
2022/07/12 09:00:53;;;;;;;;;10.00;6.00;;;;;26.19;44.77;99587.50;4828188;29;45542;-56
2022/07/12 09:03:20;;;;;;;;;9.00;7.00;;;;;26.21;44.51;99594.47;4827849;29;45694;-56
2022/07/12 09:05:52;;;;;;;;;11.75;11.25;;;;;26.26;44.17;99589.47;4828711;29;45675;-55
2022/07/12 09:08:19;;;;;;;;;7.25;7.25;;;;;26.33;44.03;99589.75;4829127;29;45326;-56
2022/07/12 09:10:50;;;;;;;;;6.50;5.75;;;;;26.39;43.91;99589.16;4828829;29;45530;-56
2022/07/12 09:13:19;;;;;;;;;6.60;5.60;;;;;26.45;43.48;99582.31;4828786;29;45578;-54
2022/07/12 09:15:48;;;;;;;;;5.00;5.00;;;;;26.51;43.51;99579.84;4828773;29;45411;-56
2022/07/12 09:18:15;;;;;;;;;6.50;5.25;;;;;26.57;43.01;99592.75;4833179;29;45439;-56
2022/07/12 09:20:43;;;;;;;;;4.75;4.75;;;;;26.63;43.10;99585.91;4829002;29;45378;-56
2022/07/12 09:23:12;;;;;;;;;4.75;4.75;;;;;26.66;43.20;99589.13;4827497;29;45594;-55
2022/07/12 09:25:43;;;;;;;;;8.80;6.00;;;;;26.73;43.12;99581.25;4828960;29;45378;-55
2022/07/12 09:28:08;;;;;;;;;8.00;8.00;;;;;26.79;42.97;99585.22;4829108;29;45330;-56
2022/07/12 09:30:37;;;;;;;;;6.00;6.00;;;;;26.83;42.57;99583.88;4828658;29;45399;-56
2022/07/12 09:36:07;;;;;;;;;6.80;5.80;;;;;26.93;43.14;99576.56;4828553;29;45438;-58
2022/07/12 09:38:37;;;;;;;;;6.00;6.00;;;;;26.98;43.24;99574.28;4828717;29;45338;-56
2022/07/12 09:41:03;;;;;;;;;10.75;8.25;;;;;27.05;42.42;99565.38;4828798;29;45697;-54
2022/07/12 09:43:29;;;;;;;;;6.75;6.75;;;;;27.09;42.56;99576.75;4828508;29;45364;-57
2022/07/12 09:45:55;;;;;;;;;7.50;7.50;;;;;27.13;41.74;99574.59;4828627;29;45389;-56
2022/07/12 09:48:21;;;;;;;;;6.25;6.25;;;;;27.14;41.59;99579.00;4828473;29;45302;-55
2022/07/12 09:50:49;;;;;;;;;9.00;6.00;;;;;27.12;41.49;99579.16;4828254;29;45591;-56
2022/07/12 09:53:27;;;;;;;;;5.25;5.25;;;;;27.15;41.94;99576.09;4825211;29;45381;-55
2022/07/12 09:55:53;;;;;;;;;5.80;4.20;;;;;27.19;41.71;99569.38;4825460;29;45385;-53
2022/07/12 09:58:31;;;;;;;;;4.00;4.00;;;;;27.23;41.25;99570.78;4825128;29;45389;-55
2022/07/12 10:01:02;;;;;;;;;6.50;6.50;;;;;27.26;41.18;99572.31;4824988;29;45579;-55
2022/07/12 10:03:31;;;;;;;;;6.00;6.00;;;;;27.28;41.41;99568.47;4824705;29;45501;-54
2022/07/12 10:06:00;;;;;;;;;8.20;7.00;;;;;27.33;41.25;99574.22;4825269;29;45424;-56
2022/07/12 10:08:25;;;;;;;;;7.75;6.00;;;;;27.37;41.35;99574.78;4825027;29;45402;-55
2022/07/12 10:10:51;;;;;;;;;5.00;5.00;;;;;27.40;41.19;99571.75;4824971;29;45486;-56
2022/07/12 10:13:19;;;;;;;;;5.00;5.00;;;;;27.42;40.68;99576.00;4824608;29;45636;-57
2022/07/12 10:15:47;;;;;;;;;6.00;5.60;;;;;27.48;40.93;99571.84;4825218;29;45393;-55
2022/07/12 10:18:20;;;;;;;;;5.00;4.25;;;;;27.55;40.76;99569.31;4829429;29;45368;-55
2022/07/12 10:20:49;;;;;;;;;4.75;4.75;;;;;27.61;40.46;99558.75;4824814;29;45391;-56
2022/07/12 10:23:35;;;;;;;;;5.00;3.25;;;;;27.69;39.88;99566.91;4824892;29;46218;-56
2022/07/12 10:26:25;;;;;;;;;3.20;3.20;;;;;27.74;39.57;99559.16;4824911;29;45576;-56
2022/07/12 10:28:59;;;;;;;;;6.50;6.00;;;;;27.82;39.58;99561.03;4819776;29;45627;-56
2022/07/12 10:31:33;;;;;;;;;5.50;5.50;;;;;27.87;39.40;99561.44;4824899;29;45366;-57
2022/07/12 10:34:20;;;;;;;;;5.50;5.50;;;;;27.91;39.06;99551.97;4824383;29;45434;-56
2022/07/12 10:36:54;;;;;;;;;5.20;5.00;;;;;27.97;38.53;99550.47;4824438;29;45435;-55
2022/07/12 10:39:24;;;;;;;;;6.50;6.50;;;;;28.00;38.70;99545.56;4825271;29;45383;-56
2022/07/12 10:42:05;;;;;;;;;5.00;4.00;;;;;28.03;37.62;99547.09;4824762;29;45395;-56
2022/07/12 10:44:34;;;;;;;;;5.25;5.25;;;;;28.02;38.15;99546.25;4824568;29;46952;-55
2022/07/12 10:47:00;;;;;;;;;4.20;4.20;;;;;28.06;38.42;99544.06;4824602;29;45582;-56
2022/07/12 10:49:28;;;;;;;;;5.50;5.50;;;;;28.08;37.97;99534.78;4824571;29;45361;-56
2022/07/12 10:52:11;;;;;;;;;7.50;4.50;;;;;28.12;38.45;99541.56;4824830;29;45474;-56
2022/07/12 10:54:40;;;;;;;;;4.80;4.80;;;;;28.19;38.41;99530.06;4824389;29;47126;-56
2022/07/12 10:57:05;;;;;;;;;4.20;4.20;;;;;28.24;38.53;99530.44;4824607;29;45396;-56
2022/07/12 10:59:35;;;;;;;;;4.25;4.25;;;;;28.30;38.05;99524.38;4824319;29;45372;-56
2022/07/12 11:02:00;;;;;;;;;4.50;4.50;;;;;28.36;38.60;99523.69;4824298;29;45513;-56
2022/07/12 11:04:29;;;;;;;;;4.50;3.75;;;;;28.43;38.50;99516.63;4823220;29;46595;-56
2022/07/12 11:06:56;;;;;;;;;5.80;3.80;;;;;28.48;38.30;99525.13;4811901;29;45338;-57
2022/07/12 11:09:23;;;;;;;;;6.60;3.60;;;;;28.55;38.64;99519.84;4824235;29;45513;-55
2022/07/12 11:11:50;;;;;;;;;3.40;3.40;;;;;28.62;38.62;99518.19;4824077;29;45412;-56
2022/07/12 11:14:29;;;;;;;;;4.80;3.20;;;;;28.70;38.35;99518.19;4822350;29;46090;-58
2022/07/12 11:16:56;;;;;;;;;3.00;3.00;;;;;28.79;38.18;99512.66;4824910;29;45235;-56
2022/07/12 11:19:23;;;;;;;;;2.50;2.50;;;;;28.86;38.28;99507.38;4827514;29;45472;-55
2022/07/12 11:21:56;;;;;;;;;3.00;2.75;;;;;28.93;37.85;99510.28;4823444;29;45430;-57
2022/07/12 11:24:24;;;;;;;;;2.00;2.00;;;;;29.03;38.04;99510.94;4823822;29;45632;-56
2022/07/12 11:26:50;;;;;;;;;3.40;1.80;;;;;29.13;38.39;99519.78;4824078;29;45477;-57
2022/07/12 11:29:16;;;;;;;;;2.40;2.40;;;;;29.21;37.54;99508.91;4824023;29;45416;-55
2022/07/12 11:31:42;;;;;;;;;2.25;2.25;;;;;29.28;37.92;99518.06;4823911;29;45357;-56
2022/07/12 11:34:19;;;;;;;;;3.25;2.00;;;;;29.33;37.81;99520.25;4823382;29;46179;-55
2022/07/12 11:36:45;;;;;;;;;2.80;2.80;;;;;29.33;37.66;99499.38;4823829;29;45420;-55